createdAt,value
2022-11-18T00:02:38.954Z,30.7
2022-11-18T00:13:38.291Z,30.6
2022-11-18T00:19:17.017Z,30.6
2022-11-18T00:24:58.696Z,30.6
2022-11-18T00:30:35.691Z,30.6
2022-11-18T00:36:12.017Z,30.6
2022-11-18T00:41:35.229Z,30.6
2022-11-18T00:47:12.552Z,30.6
2022-11-18T00:52:34.991Z,30.5
2022-11-18T00:58:12.507Z,30.5
2022-11-18T01:03:36.146Z,30.5
2022-11-18T01:08:57.914Z,30.4
2022-11-18T01:14:20.824Z,30.4
2022-11-18T01:30:47.199Z,30.4
2022-11-18T01:36:41.215Z,30.4
2022-11-18T01:42:18.995Z,30.4
2022-11-18T01:47:41.739Z,30.4
2022-11-18T01:53:09.147Z,30.3
2022-11-18T02:03:55.169Z,30.3
2022-11-18T02:09:33.380Z,30.4
2022-11-18T02:15:11.702Z,30.7
2022-11-18T02:20:49.870Z,31.1
2022-11-18T02:26:26.862Z,31.6
2022-11-18T02:42:32.448Z,33.4
2022-11-18T02:48:10.344Z,34.1
2022-11-18T02:53:48.140Z,34.8
2022-11-18T02:59:25.941Z,35.5
2022-11-18T03:05:03.505Z,36.2
2022-11-18T03:10:26.338Z,37
2022-11-18T03:15:32.863Z,37.7
2022-11-18T03:26:16.926Z,39.1
2022-11-18T03:31:39.257Z,39.8
2022-11-18T03:37:10.342Z,40.4
2022-11-18T03:42:48.568Z,40.5
2022-11-18T03:48:32.152Z,40.5
2022-11-18T03:53:54.980Z,40.6
2022-11-18T03:59:37.972Z,40.6
2022-11-18T04:05:15.085Z,40.6
2022-11-18T04:10:52.811Z,40.5
2022-11-18T04:16:31.249Z,40.5
2022-11-18T04:22:09.116Z,40.5
2022-11-18T04:33:09.405Z,40.4
2022-11-18T04:44:15.831Z,40.4
2022-11-18T04:49:59.039Z,40.4
2022-11-18T04:55:36.559Z,40.4
2022-11-18T05:01:19.638Z,40.3
2022-11-18T05:06:41.853Z,40.3
2022-11-18T05:12:04.851Z,40.3
2022-11-18T05:17:28.358Z,40.3
2022-11-18T05:22:54.498Z,40.2
2022-11-18T05:28:32.224Z,40.2
2022-11-18T05:33:55.031Z,40.1
2022-11-18T05:44:58.844Z,40.1
2022-11-18T05:50:38.275Z,40.1
2022-11-18T05:56:16.380Z,40.1
2022-11-18T06:01:54.882Z,40.3
2022-11-18T06:07:33.827Z,40.3
2022-11-18T06:13:12.478Z,40.3
2022-11-18T06:18:53.359Z,40.3
2022-11-18T06:24:31.302Z,40.3
2022-11-18T06:30:15.436Z,40.3
2022-11-18T06:35:53.031Z,40.3
2022-11-18T06:41:37.797Z,40.2
2022-11-18T06:47:01.665Z,39.8
2022-11-18T06:52:24.576Z,39.7
2022-11-18T06:58:07.592Z,39.6
2022-11-18T07:03:46.321Z,39.5
2022-11-18T07:09:23.332Z,39.5
2022-11-18T07:15:06.257Z,39.4
2022-11-18T07:20:43.686Z,39.4
2022-11-18T07:26:21.126Z,39.3
2022-11-18T07:31:59.666Z,39.3
2022-11-18T07:37:41.836Z,39.3
2022-11-18T07:43:19.930Z,39.2
2022-11-18T07:49:04.292Z,39.2
2022-11-18T07:54:43.999Z,39.2
2022-11-18T08:00:22.331Z,39.1
2022-11-18T08:06:07.435Z,39.1
2022-11-18T08:11:49.288Z,39.1
2022-11-18T08:17:26.709Z,39
2022-11-18T08:23:04.689Z,38.9
2022-11-18T08:28:47.667Z,38.9
2022-11-18T08:34:28.960Z,38.9
2022-11-18T08:39:56.180Z,38.9
2022-11-18T08:45:21.322Z,38.8
2022-11-18T08:50:59.492Z,38.8
2022-11-18T08:56:37.636Z,38.8
2022-11-18T09:02:15.048Z,38.8
2022-11-18T09:07:52.552Z,38.7
2022-11-18T09:21:11.279Z,38.6
2022-11-18T09:26:49.719Z,38.6
2022-11-18T09:32:33.921Z,38.5
2022-11-18T09:38:12.126Z,38.5
2022-11-18T09:43:55.704Z,38.4
2022-11-18T09:49:38.792Z,38.4
2022-11-18T09:55:58.499Z,38.4
2022-11-18T10:01:37.128Z,38.4
2022-11-18T10:07:14.897Z,38.3
2022-11-18T10:12:58.007Z,50.3
2022-11-18T10:19:01.599Z,46.9
2022-11-18T10:24:49.667Z,62.4
2022-11-18T10:30:12.206Z,57.2
2022-11-18T10:35:34.567Z,59.7
2022-11-18T10:41:41.586Z,60.1
2022-11-18T10:47:04.747Z,60.3
2022-11-18T10:52:49.744Z,60.5
2022-11-18T10:58:32.914Z,61.4
2022-11-18T11:04:13.648Z,56.8
2022-11-18T11:10:01.338Z,55.4
2022-11-18T11:15:40.888Z,56.2
2022-11-18T11:21:19.706Z,54.9
2022-11-18T11:28:50.152Z,54
2022-11-18T11:34:28.292Z,52.7
2022-11-18T11:40:11.175Z,52
2022-11-18T11:51:19.901Z,49.2
2022-11-18T11:56:42.532Z,46.4
2022-11-18T12:02:20.989Z,44.9
2022-11-18T12:08:06.131Z,43.8
2022-11-18T12:13:44.523Z,42.9
2022-11-18T12:19:27.342Z,41.9
2022-11-18T12:25:06.116Z,41.3
2022-11-18T12:30:44.750Z,40.7
2022-11-18T12:36:22.243Z,40.3
2022-11-18T12:42:00.171Z,40.1
2022-11-18T12:47:38.338Z,40.1
2022-11-18T12:53:01.686Z,40.1
2022-11-18T12:58:27.735Z,40.1
2022-11-18T13:04:06.635Z,40
2022-11-18T13:09:50.959Z,39.9
2022-11-18T13:15:29.791Z,39.8
2022-11-18T13:21:08.587Z,39.6
2022-11-18T13:26:15.065Z,39.5
2022-11-18T13:31:52.359Z,39.4
2022-11-18T13:37:30.487Z,39.2
2022-11-18T13:43:00.088Z,39.1
2022-11-18T13:48:41.932Z,38.9
2022-11-18T13:54:21.024Z,38.8
2022-11-18T13:59:59.626Z,38.7
2022-11-18T14:10:45.782Z,38.4
2022-11-18T14:16:24.806Z,38.3
2022-11-18T14:22:04.031Z,38.3
2022-11-18T14:27:43.261Z,38
2022-11-18T14:33:05.451Z,37.8
2022-11-18T14:39:43.186Z,37.6
2022-11-18T14:44:54.492Z,37.4
2022-11-18T14:50:32.956Z,37.4
2022-11-18T14:56:19.493Z,37.4
2022-11-18T15:02:03.670Z,37.4
2022-11-18T15:07:11.927Z,37.4
2022-11-18T15:17:57.390Z,37.3
2022-11-18T15:23:35.039Z,37.3
2022-11-18T15:29:13.423Z,37.2
2022-11-18T15:34:56.831Z,37.2
2022-11-18T15:45:54.563Z,37.4
2022-11-18T15:51:33.025Z,37.4
2022-11-18T15:57:02.786Z,37.4
2022-11-18T16:07:55.073Z,37.3
2022-11-18T16:13:18.098Z,37.3
2022-11-18T16:18:57.499Z,37.2
2022-11-18T16:24:35.961Z,37.1
2022-11-18T16:30:19.854Z,37.1
2022-11-18T16:36:05.923Z,37
2022-11-18T16:41:43.892Z,37
2022-11-18T16:47:34.293Z,36.9
2022-11-18T16:52:57.323Z,36.9
2022-11-18T17:04:46.575Z,36.8
2022-11-18T17:15:36.912Z,36.7
2022-11-18T17:21:04.141Z,36.6
2022-11-18T17:31:57.011Z,36.6
2022-11-18T17:37:23.383Z,36.5
2022-11-18T17:42:46.428Z,36.4
2022-11-18T17:48:16.585Z,36.4
2022-11-18T17:53:59.672Z,36.4
2022-11-18T17:59:43.933Z,36.3
2022-11-18T18:05:24.556Z,36.3
2022-11-18T18:10:53.446Z,36.3
2022-11-18T18:16:22.487Z,36.2
2022-11-18T18:22:02.335Z,36.1
2022-11-18T18:27:41.208Z,36.1
2022-11-18T18:33:25.355Z,36
2022-11-18T18:38:33.157Z,35.9
2022-11-18T18:43:40.756Z,35.9
2022-11-18T18:49:23.761Z,35.8
2022-11-18T18:55:03.028Z,35.8
2022-11-18T19:00:33.153Z,35.8
2022-11-18T19:07:32.080Z,35.8
2022-11-18T19:12:56.792Z,35.7
2022-11-18T19:18:21.493Z,35.7
2022-11-18T19:23:45.928Z,35.6
2022-11-18T19:29:58.791Z,35.6
2022-11-18T19:35:23.582Z,35.6
2022-11-18T19:41:03.513Z,35.6
2022-11-18T19:46:48.226Z,35.5
2022-11-18T19:52:28.187Z,35.4
2022-11-18T19:58:14.777Z,35.4
2022-11-18T20:03:54.764Z,35.3
2022-11-18T20:09:35.324Z,35.2
2022-11-18T20:15:19.729Z,35.1
2022-11-18T20:21:13.990Z,35.3
2022-11-18T20:26:53.715Z,35.4
2022-11-18T20:32:22.850Z,35.7
2022-11-18T20:43:27.115Z,36.9
2022-11-18T20:54:01.808Z,38.3
2022-11-18T20:58:54.427Z,38.9
2022-11-18T21:04:33.413Z,39.6
2022-11-18T21:10:13.313Z,40.3
2022-11-18T21:15:53.671Z,40.7
2022-11-18T21:21:33.295Z,40.9
2022-11-18T21:27:18.857Z,40.9
2022-11-18T21:33:01.943Z,41
2022-11-18T21:38:44.785Z,41
2022-11-18T21:44:55.961Z,41
2022-11-18T21:50:39.879Z,41
2022-11-18T22:07:07.284Z,40.9
2022-11-18T22:12:29.727Z,40.9
2022-11-18T22:18:08.045Z,40.9
2022-11-18T22:23:52.051Z,40.9
2022-11-18T22:29:32.161Z,40.9
2022-11-18T22:35:10.458Z,40.9
2022-11-18T22:40:48.841Z,40.9
2022-11-18T22:46:32.530Z,40.8
2022-11-18T22:52:10.592Z,40.8
2022-11-18T22:59:58.941Z,40.8
2022-11-18T23:07:02.616Z,40.8
2022-11-18T23:12:47.534Z,40.8
2022-11-18T23:18:12.210Z,40.7
2022-11-18T23:23:37.396Z,40.7
2022-11-18T23:29:17.751Z,40.6
2022-11-18T23:34:57.466Z,40.6
2022-11-18T23:45:44.906Z,40.5
2022-11-18T23:51:28.657Z,40.5
2022-11-18T23:57:11.166Z,40.5
